sensor_id;sensor_type;location;lat;lon;timestamp;pressure;altitude;pressure_sealevel;temperature;humidity
10978;BME280;5542;48.272;10.794;2023-05-07T00:00:29;95658.25;;;13.86;73.20
10978;BME280;5542;48.272;10.794;2023-05-07T00:02:57;95652.44;;;13.84;73.26
10978;BME280;5542;48.272;10.794;2023-05-07T00:05:24;95651.38;;;13.85;73.04
10978;BME280;5542;48.272;10.794;2023-05-07T00:07:51;95651.63;;;13.83;72.81
10978;BME280;5542;48.272;10.794;2023-05-07T00:10:18;95650.84;;;13.83;73.13
10978;BME280;5542;48.272;10.794;2023-05-07T00:12:44;95650.03;;;13.82;72.87
10978;BME280;5542;48.272;10.794;2023-05-07T00:15:11;95655.34;;;13.82;72.92
10978;BME280;5542;48.272;10.794;2023-05-07T00:17:38;95657.19;;;13.82;72.92
10978;BME280;5542;48.272;10.794;2023-05-07T00:20:06;95655.34;;;13.82;72.83
10978;BME280;5542;48.272;10.794;2023-05-07T00:22:33;95651.38;;;13.85;72.72
10978;BME280;5542;48.272;10.794;2023-05-07T00:25:00;95651.38;;;13.85;72.91
10978;BME280;5542;48.272;10.794;2023-05-07T00:27:26;95650.59;;;13.84;72.68
10978;BME280;5542;48.272;10.794;2023-05-07T00:29:53;95647.16;;;13.84;72.83
10978;BME280;5542;48.272;10.794;2023-05-07T00:32:20;95649.53;;;13.86;72.83
10978;BME280;5542;48.272;10.794;2023-05-07T00:34:46;95655.59;;;13.86;72.74
10978;BME280;5542;48.272;10.794;2023-05-07T00:37:14;95654.28;;;13.83;72.64
10978;BME280;5542;48.272;10.794;2023-05-07T00:39:41;95651.28;;;13.75;72.83
10978;BME280;5542;48.272;10.794;2023-05-07T00:42:08;95657.63;;;13.74;72.87
10978;BME280;5542;48.272;10.794;2023-05-07T00:44:34;95656.81;;;13.73;72.99
10978;BME280;5542;48.272;10.794;2023-05-07T00:47:03;95654.13;;;13.68;73.49
10978;BME280;5542;48.272;10.794;2023-05-07T00:49:35;95661.28;;;13.68;73.59
10978;BME280;5542;48.272;10.794;2023-05-07T00:52:04;95657.22;;;13.60;73.89
10978;BME280;5542;48.272;10.794;2023-05-07T00:54:33;95648.50;;;13.60;74.10
10978;BME280;5542;48.272;10.794;2023-05-07T00:57:02;95652.13;;;13.53;74.42
10978;BME280;5542;48.272;10.794;2023-05-07T00:59:29;95648.38;;;13.49;74.71
10978;BME280;5542;48.272;10.794;2023-05-07T01:01:56;95636.41;;;13.42;74.99
10978;BME280;5542;48.272;10.794;2023-05-07T01:04:22;95647.22;;;13.40;75.06
10978;BME280;5542;48.272;10.794;2023-05-07T01:06:50;95640.34;;;13.39;74.91
10978;BME280;5542;48.272;10.794;2023-05-07T01:09:17;95644.81;;;13.39;75.22
10978;BME280;5542;48.272;10.794;2023-05-07T01:11:46;95641.91;;;13.35;75.15
10978;BME280;5542;48.272;10.794;2023-05-07T01:14:13;95641.03;;;13.29;75.26
10978;BME280;5542;48.272;10.794;2023-05-07T01:16:40;95638.63;;;13.28;75.28
10978;BME280;5542;48.272;10.794;2023-05-07T01:19:07;95638.94;;;13.31;75.12
10978;BME280;5542;48.272;10.794;2023-05-07T01:21:37;95638.16;;;13.31;75.02
10978;BME280;5542;48.272;10.794;2023-05-07T01:24:06;95642.06;;;13.28;75.21
10978;BME280;5542;48.272;10.794;2023-05-07T01:26:34;95638.69;;;13.33;74.83
10978;BME280;5542;48.272;10.794;2023-05-07T01:29:00;95634.25;;;13.39;74.45
10978;BME280;5542;48.272;10.794;2023-05-07T01:31:27;95626.09;;;13.40;74.61
10978;BME280;5542;48.272;10.794;2023-05-07T01:33:54;95630.63;;;13.45;74.35
10978;BME280;5542;48.272;10.794;2023-05-07T01:36:23;95632.44;;;13.39;74.42
10978;BME280;5542;48.272;10.794;2023-05-07T01:38:52;95630.22;;;13.31;74.62
10978;BME280;5542;48.272;10.794;2023-05-07T01:41:21;95638.88;;;13.26;74.69
10978;BME280;5542;48.272;10.794;2023-05-07T01:43:50;95638.31;;;13.24;74.83
10978;BME280;5542;48.272;10.794;2023-05-07T01:46:18;95639.13;;;13.25;74.68
10978;BME280;5542;48.272;10.794;2023-05-07T01:48:45;95644.09;;;13.21;74.93
10978;BME280;5542;48.272;10.794;2023-05-07T01:51:12;95640.66;;;13.21;75.19
10978;BME280;5542;48.272;10.794;2023-05-07T01:53:39;95638.56;;;13.23;74.98
10978;BME280;5542;48.272;10.794;2023-05-07T01:56:06;95638.81;;;13.21;74.86
10978;BME280;5542;48.272;10.794;2023-05-07T01:58:34;95648.00;;;13.19;74.83
10978;BME280;5542;48.272;10.794;2023-05-07T02:01:01;95643.50;;;13.19;74.81
10978;BME280;5542;48.272;10.794;2023-05-07T02:03:27;95644.91;;;13.22;74.82
10978;BME280;5542;48.272;10.794;2023-05-07T02:05:54;95635.84;;;13.18;74.98
10978;BME280;5542;48.272;10.794;2023-05-07T02:08:21;95633.94;;;13.13;75.10
10978;BME280;5542;48.272;10.794;2023-05-07T02:10:47;95632.84;;;13.09;75.15
10978;BME280;5542;48.272;10.794;2023-05-07T02:13:15;95632.03;;;13.08;75.05
10978;BME280;5542;48.272;10.794;2023-05-07T02:15:43;95629.41;;;13.08;75.09
10978;BME280;5542;48.272;10.794;2023-05-07T02:18:12;95633.56;;;13.04;75.29
10978;BME280;5542;48.272;10.794;2023-05-07T02:20:38;95633.81;;;13.03;75.50
10978;BME280;5542;48.272;10.794;2023-05-07T02:23:05;95632.72;;;12.99;75.60
10978;BME280;5542;48.272;10.794;2023-05-07T02:25:32;95635.53;;;12.92;76.13
10978;BME280;5542;48.272;10.794;2023-05-07T02:27:58;95636.81;;;12.90;76.46
10978;BME280;5542;48.272;10.794;2023-05-07T02:30:25;95634.19;;;12.90;76.67
10978;BME280;5542;48.272;10.794;2023-05-07T02:32:53;95632.84;;;12.87;76.82
10978;BME280;5542;48.272;10.794;2023-05-07T02:35:20;95637.47;;;12.80;77.19
10978;BME280;5542;48.272;10.794;2023-05-07T02:37:46;95640.59;;;12.77;77.53
10978;BME280;5542;48.272;10.794;2023-05-07T02:40:13;95638.78;;;12.77;77.38
10978;BME280;5542;48.272;10.794;2023-05-07T02:42:39;95637.75;;;12.78;77.41
10978;BME280;5542;48.272;10.794;2023-05-07T02:45:07;95643.25;;;12.77;77.39
10978;BME280;5542;48.272;10.794;2023-05-07T02:47:33;95639.44;;;12.68;78.13
10978;BME280;5542;48.272;10.794;2023-05-07T02:50:02;95630.41;;;12.64;78.58
10978;BME280;5542;48.272;10.794;2023-05-07T02:52:28;95632.56;;;12.67;78.55
10978;BME280;5542;48.272;10.794;2023-05-07T02:54:55;95630.97;;;12.66;78.53
10978;BME280;5542;48.272;10.794;2023-05-07T02:57:21;95630.97;;;12.66;78.57
10978;BME280;5542;48.272;10.794;2023-05-07T02:59:48;95628.78;;;12.63;78.60
10978;BME280;5542;48.272;10.794;2023-05-07T03:02:15;95626.16;;;12.63;78.42
10978;BME280;5542;48.272;10.794;2023-05-07T03:04:41;95624.88;;;12.65;78.13
10978;BME280;5542;48.272;10.794;2023-05-07T03:07:09;95633.34;;;12.67;77.91
10978;BME280;5542;48.272;10.794;2023-05-07T03:09:36;95625.22;;;12.69;77.68
10978;BME280;5542;48.272;10.794;2023-05-07T03:12:02;95628.06;;;12.67;77.76
10978;BME280;5542;48.272;10.794;2023-05-07T03:14:29;95628.56;;;12.64;77.52
10978;BME280;5542;48.272;10.794;2023-05-07T03:16:56;95626.66;;;12.60;77.70
10978;BME280;5542;48.272;10.794;2023-05-07T03:19:22;95626.81;;;12.53;77.87
10978;BME280;5542;48.272;10.794;2023-05-07T03:21:49;95631.28;;;12.52;77.76
10978;BME280;5542;48.272;10.794;2023-05-07T03:24:17;95635.31;;;12.55;77.67
10978;BME280;5542;48.272;10.794;2023-05-07T03:26:43;95632.09;;;12.53;77.70
10978;BME280;5542;48.272;10.794;2023-05-07T03:29:10;95636.91;;;12.56;77.25
10978;BME280;5542;48.272;10.794;2023-05-07T03:31:36;95638.75;;;12.55;77.06
10978;BME280;5542;48.272;10.794;2023-05-07T03:34:04;95632.91;;;12.53;77.55
10978;BME280;5542;48.272;10.794;2023-05-07T03:36:30;95638.91;;;12.49;77.54
10978;BME280;5542;48.272;10.794;2023-05-07T03:38:57;95637.56;;;12.46;77.70
10978;BME280;5542;48.272;10.794;2023-05-07T03:41:25;95637.81;;;12.45;77.74
10978;BME280;5542;48.272;10.794;2023-05-07T03:43:51;95649.94;;;12.46;77.54
10978;BME280;5542;48.272;10.794;2023-05-07T03:46:18;95653.06;;;12.43;77.77
10978;BME280;5542;48.272;10.794;2023-05-07T03:48:45;95650.66;;;12.41;77.83
10978;BME280;5542;48.272;10.794;2023-05-07T03:51:11;95654.97;;;12.47;77.54
10978;BME280;5542;48.272;10.794;2023-05-07T03:53:38;95648.50;;;12.38;77.99
10978;BME280;5542;48.272;10.794;2023-05-07T03:56:04;95652.66;;;12.34;78.07
10978;BME280;5542;48.272;10.794;2023-05-07T03:58:32;95654.41;;;12.28;78.16
10978;BME280;5542;48.272;10.794;2023-05-07T04:00:59;95652.28;;;12.25;78.55
10978;BME280;5542;48.272;10.794;2023-05-07T04:03:26;95658.81;;;12.23;78.57
10978;BME280;5542;48.272;10.794;2023-05-07T04:05:52;95653.78;;;12.21;78.39
10978;BME280;5542;48.272;10.794;2023-05-07T04:08:19;95659.28;;;12.20;78.44
10978;BME280;5542;48.272;10.794;2023-05-07T04:10:46;95650.84;;;12.18;78.44
10978;BME280;5542;48.272;10.794;2023-05-07T04:13:12;95652.41;;;12.19;78.38
10978;BME280;5542;48.272;10.794;2023-05-07T04:15:40;95646.81;;;12.15;78.40
10978;BME280;5542;48.272;10.794;2023-05-07T04:18:07;95647.31;;;12.12;78.35
10978;BME280;5542;48.272;10.794;2023-05-07T04:20:34;95653.84;;;12.10;78.52
10978;BME280;5542;48.272;10.794;2023-05-07T04:23:01;95654.44;;;12.12;78.48
10978;BME280;5542;48.272;10.794;2023-05-07T04:25:28;95651.53;;;12.13;78.42
10978;BME280;5542;48.272;10.794;2023-05-07T04:27:54;95649.25;;;12.17;78.32
10978;BME280;5542;48.272;10.794;2023-05-07T04:30:21;95658.03;;;12.22;78.20
10978;BME280;5542;48.272;10.794;2023-05-07T04:32:49;95660.97;;;12.26;78.07
10978;BME280;5542;48.272;10.794;2023-05-07T04:35:15;95663.84;;;12.24;78.12
10978;BME280;5542;48.272;10.794;2023-05-07T04:37:44;95655.13;;;12.24;78.43
10978;BME280;5542;48.272;10.794;2023-05-07T04:40:11;95659.63;;;12.23;78.48
10978;BME280;5542;48.272;10.794;2023-05-07T04:42:37;95656.25;;;12.28;78.53
10978;BME280;5542;48.272;10.794;2023-05-07T04:45:05;95655.28;;;12.34;78.42
10978;BME280;5542;48.272;10.794;2023-05-07T04:47:31;95650.91;;;12.40;78.66
10978;BME280;5542;48.272;10.794;2023-05-07T04:50:00;95649.06;;;12.40;78.78
10978;BME280;5542;48.272;10.794;2023-05-07T04:52:26;95644.91;;;12.44;78.96
10978;BME280;5542;48.272;10.794;2023-05-07T04:54:53;95652.66;;;12.51;79.24
10978;BME280;5542;48.272;10.794;2023-05-07T04:57:19;95658.78;;;12.56;79.14
10978;BME280;5542;48.272;10.794;2023-05-07T04:59:46;95660.38;;;12.57;79.48
10978;BME280;5542;48.272;10.794;2023-05-07T05:02:12;95660.16;;;12.59;80.18
10978;BME280;5542;48.272;10.794;2023-05-07T05:04:39;95658.31;;;12.60;80.53
10978;BME280;5542;48.272;10.794;2023-05-07T05:07:07;95664.66;;;12.59;81.15
10978;BME280;5542;48.272;10.794;2023-05-07T05:09:34;95659.19;;;12.65;81.75
10978;BME280;5542;48.272;10.794;2023-05-07T05:12:00;95660.31;;;12.69;82.36
10978;BME280;5542;48.272;10.794;2023-05-07T05:14:27;95669.63;;;12.77;82.60
10978;BME280;5542;48.272;10.794;2023-05-07T05:16:53;95673.63;;;12.79;83.17
10978;BME280;5542;48.272;10.794;2023-05-07T05:19:20;95671.13;;;12.68;83.93
10978;BME280;5542;48.272;10.794;2023-05-07T05:21:47;95663.25;;;12.73;84.26
10978;BME280;5542;48.272;10.794;2023-05-07T05:24:14;95666.44;;;12.75;84.78
10978;BME280;5542;48.272;10.794;2023-05-07T05:26:41;95660.97;;;12.81;84.64
10978;BME280;5542;48.272;10.794;2023-05-07T05:29:08;95660.31;;;12.91;83.98
10978;BME280;5542;48.272;10.794;2023-05-07T05:31:34;95657.69;;;12.91;84.63
10978;BME280;5542;48.272;10.794;2023-05-07T05:34:02;95660.91;;;12.93;84.78
10978;BME280;5542;48.272;10.794;2023-05-07T05:36:28;95662.53;;;12.99;84.31
10978;BME280;5542;48.272;10.794;2023-05-07T05:38:55;95659.00;;;13.11;84.09
10978;BME280;5542;48.272;10.794;2023-05-07T05:41:24;95665.47;;;13.20;83.99
10978;BME280;5542;48.272;10.794;2023-05-07T05:43:50;95670.31;;;13.28;84.38
10978;BME280;5542;48.272;10.794;2023-05-07T05:46:17;95677.94;;;13.46;84.61
10978;BME280;5542;48.272;10.794;2023-05-07T05:48:43;95673.06;;;13.60;83.78
10978;BME280;5542;48.272;10.794;2023-05-07T05:51:10;95668.50;;;13.77;83.38
10978;BME280;5542;48.272;10.794;2023-05-07T05:53:36;95666.13;;;13.81;81.93
10978;BME280;5542;48.272;10.794;2023-05-07T05:56:03;95667.59;;;13.94;82.29
10978;BME280;5542;48.272;10.794;2023-05-07T05:58:31;95671.75;;;14.17;82.18
10978;BME280;5542;48.272;10.794;2023-05-07T06:00:58;95668.22;;;14.38;81.55
10978;BME280;5542;48.272;10.794;2023-05-07T06:03:25;95671.47;;;14.45;80.21
10978;BME280;5542;48.272;10.794;2023-05-07T06:05:52;95675.34;;;14.65;78.64
10978;BME280;5542;48.272;10.794;2023-05-07T06:08:18;95672.19;;;14.68;77.60
10978;BME280;5542;48.272;10.794;2023-05-07T06:10:45;95672.28;;;14.83;76.71
10978;BME280;5542;48.272;10.794;2023-05-07T06:13:11;95671.81;;;14.96;77.44
10978;BME280;5542;48.272;10.794;2023-05-07T06:15:39;95669.25;;;15.17;77.12
10978;BME280;5542;48.272;10.794;2023-05-07T06:18:06;95669.88;;;15.34;76.52
10978;BME280;5542;48.272;10.794;2023-05-07T06:20:32;95665.44;;;15.55;77.83
10978;BME280;5542;48.272;10.794;2023-05-07T06:22:59;95664.47;;;15.76;76.18
10978;BME280;5542;48.272;10.794;2023-05-07T06:25:26;95666.59;;;15.84;74.95
10978;BME280;5542;48.272;10.794;2023-05-07T06:27:52;95667.69;;;16.04;74.11
10978;BME280;5542;48.272;10.794;2023-05-07T06:30:19;95676.47;;;16.09;73.27
10978;BME280;5542;48.272;10.794;2023-05-07T06:32:47;95681.78;;;16.09;73.08
10978;BME280;5542;48.272;10.794;2023-05-07T06:35:13;95681.22;;;16.12;74.05
10978;BME280;5542;48.272;10.794;2023-05-07T06:37:40;95684.44;;;16.35;75.12
10978;BME280;5542;48.272;10.794;2023-05-07T06:40:08;95680.44;;;16.68;74.26
10978;BME280;5542;48.272;10.794;2023-05-07T06:42:36;95681.22;;;16.84;71.17
10978;BME280;5542;48.272;10.794;2023-05-07T06:45:03;95676.91;;;17.08;71.15
10978;BME280;5542;48.272;10.794;2023-05-07T06:47:30;95680.03;;;17.31;71.11
10978;BME280;5542;48.272;10.794;2023-05-07T06:49:58;95672.75;;;17.62;70.93
10978;BME280;5542;48.272;10.794;2023-05-07T06:52:24;95671.72;;;18.02;67.86
10978;BME280;5542;48.272;10.794;2023-05-07T06:54:51;95676.94;;;18.17;66.52
10978;BME280;5542;48.272;10.794;2023-05-07T06:57:17;95683.84;;;18.24;65.77
10978;BME280;5542;48.272;10.794;2023-05-07T06:59:44;95685.38;;;18.30;67.95
10978;BME280;5542;48.272;10.794;2023-05-07T07:02:10;95671.97;;;18.74;67.90
10978;BME280;5542;48.272;10.794;2023-05-07T07:04:37;95678.66;;;19.25;63.35
10978;BME280;5542;48.272;10.794;2023-05-07T07:07:05;95673.44;;;19.38;62.61
10978;BME280;5542;48.272;10.794;2023-05-07T07:09:31;95668.44;;;19.80;62.54
10978;BME280;5542;48.272;10.794;2023-05-07T07:11:58;95674.34;;;20.14;59.54
10978;BME280;5542;48.272;10.794;2023-05-07T07:14:25;95671.25;;;20.40;59.41
10978;BME280;5542;48.272;10.794;2023-05-07T07:16:52;95675.84;;;20.72;57.40
10978;BME280;5542;48.272;10.794;2023-05-07T07:19:19;95676.25;;;20.79;56.84
10978;BME280;5542;48.272;10.794;2023-05-07T07:21:46;95680.84;;;21.06;57.69
10978;BME280;5542;48.272;10.794;2023-05-07T07:24:14;95676.94;;;21.31;55.84
10978;BME280;5542;48.272;10.794;2023-05-07T07:26:44;95676.22;;;21.26;53.40
10978;BME280;5542;48.272;10.794;2023-05-07T07:29:10;95679.44;;;21.41;54.01
10978;BME280;5542;48.272;10.794;2023-05-07T07:31:37;95676.81;;;21.64;52.68
10978;BME280;5542;48.272;10.794;2023-05-07T07:34:03;95673.06;;;21.65;51.66
10978;BME280;5542;48.272;10.794;2023-05-07T07:36:30;95677.44;;;21.61;52.91
10978;BME280;5542;48.272;10.794;2023-05-07T07:38:57;95684.44;;;21.29;52.92
10978;BME280;5542;48.272;10.794;2023-05-07T07:41:24;95679.59;;;21.17;52.72
10978;BME280;5542;48.272;10.794;2023-05-07T07:43:51;95688.47;;;21.27;55.79
10978;BME280;5542;48.272;10.794;2023-05-07T07:46:18;95683.16;;;21.54;50.36
10978;BME280;5542;48.272;10.794;2023-05-07T07:48:44;95679.88;;;21.30;51.27
10978;BME280;5542;48.272;10.794;2023-05-07T07:51:11;95685.66;;;21.37;52.88
10978;BME280;5542;48.272;10.794;2023-05-07T07:53:37;95686.16;;;21.53;52.96
10978;BME280;5542;48.272;10.794;2023-05-07T07:56:04;95682.94;;;21.64;52.15
10978;BME280;5542;48.272;10.794;2023-05-07T07:58:32;95686.75;;;21.50;52.03
10978;BME280;5542;48.272;10.794;2023-05-07T08:01:00;95689.13;;;21.51;53.31
10978;BME280;5542;48.272;10.794;2023-05-07T08:03:27;95686.81;;;21.72;51.48
10978;BME280;5542;48.272;10.794;2023-05-07T08:05:57;95696.25;;;21.42;53.15
10978;BME280;5542;48.272;10.794;2023-05-07T08:08:23;95695.13;;;21.29;54.83
10978;BME280;5542;48.272;10.794;2023-05-07T08:10:50;95686.25;;;21.61;51.56
10978;BME280;5542;48.272;10.794;2023-05-07T08:13:17;95683.56;;;21.47;51.15
10978;BME280;5542;48.272;10.794;2023-05-07T08:15:45;95695.06;;;21.62;52.42
10978;BME280;5542;48.272;10.794;2023-05-07T08:18:12;95689.38;;;21.77;49.79
10978;BME280;5542;48.272;10.794;2023-05-07T08:20:38;95690.69;;;21.80;48.59
10978;BME280;5542;48.272;10.794;2023-05-07T08:23:06;95689.19;;;21.73;49.21
10978;BME280;5542;48.272;10.794;2023-05-07T08:25:33;95695.56;;;21.50;49.29
10978;BME280;5542;48.272;10.794;2023-05-07T08:28:00;95687.34;;;21.60;48.22
10978;BME280;5542;48.272;10.794;2023-05-07T08:30:26;95683.56;;;21.61;48.45
10978;BME280;5542;48.272;10.794;2023-05-07T08:32:54;95684.38;;;21.34;48.95
10978;BME280;5542;48.272;10.794;2023-05-07T08:35:21;95684.84;;;21.50;48.64
10978;BME280;5542;48.272;10.794;2023-05-07T08:37:48;95684.06;;;21.50;48.20
10978;BME280;5542;48.272;10.794;2023-05-07T08:40:14;95674.66;;;21.38;47.62
10978;BME280;5542;48.272;10.794;2023-05-07T08:42:41;95687.53;;;21.22;50.53
10978;BME280;5542;48.272;10.794;2023-05-07T08:45:09;95686.53;;;21.18;51.11
10978;BME280;5542;48.272;10.794;2023-05-07T08:47:41;95683.47;;;21.39;48.89
10978;BME280;5542;48.272;10.794;2023-05-07T08:50:10;95685.63;;;21.64;49.90
10978;BME280;5542;48.272;10.794;2023-05-07T08:52:37;95692.75;;;21.83;51.66
10978;BME280;5542;48.272;10.794;2023-05-07T08:55:04;95688.66;;;22.13;49.99
10978;BME280;5542;48.272;10.794;2023-05-07T08:57:31;95687.94;;;22.07;48.95
10978;BME280;5542;48.272;10.794;2023-05-07T08:59:58;95693.72;;;21.87;49.54
10978;BME280;5542;48.272;10.794;2023-05-07T09:02:24;95695.81;;;21.90;51.80
10978;BME280;5542;48.272;10.794;2023-05-07T09:04:51;95693.69;;;22.14;51.08
10978;BME280;5542;48.272;10.794;2023-05-07T09:07:20;95689.59;;;22.17;51.50
10978;BME280;5542;48.272;10.794;2023-05-07T09:09:46;95692.78;;;22.55;48.93
10978;BME280;5542;48.272;10.794;2023-05-07T09:12:13;95688.22;;;22.64;47.78
10978;BME280;5542;48.272;10.794;2023-05-07T09:14:40;95691.53;;;22.84;47.62
10978;BME280;5542;48.272;10.794;2023-05-07T09:17:07;95676.50;;;23.05;46.21
10978;BME280;5542;48.272;10.794;2023-05-07T09:19:33;95677.75;;;22.54;45.27
10978;BME280;5542;48.272;10.794;2023-05-07T09:22:00;95685.13;;;22.48;46.86
10978;BME280;5542;48.272;10.794;2023-05-07T09:24:29;95679.59;;;22.45;45.89
10978;BME280;5542;48.272;10.794;2023-05-07T09:27:00;95676.97;;;22.54;45.91
10978;BME280;5542;48.272;10.794;2023-05-07T09:29:28;95677.41;;;22.47;45.13
10978;BME280;5542;48.272;10.794;2023-05-07T09:31:55;95669.00;;;22.62;43.45
10978;BME280;5542;48.272;10.794;2023-05-07T09:34:22;95685.88;;;22.18;45.49
10978;BME280;5542;48.272;10.794;2023-05-07T09:36:49;95679.38;;;22.55;43.71
10978;BME280;5542;48.272;10.794;2023-05-07T09:39:16;95677.78;;;22.32;42.56
10978;BME280;5542;48.272;10.794;2023-05-07T09:41:45;95681.78;;;22.20;43.52
10978;BME280;5542;48.272;10.794;2023-05-07T09:44:12;95676.13;;;22.22;43.89
10978;BME280;5542;48.272;10.794;2023-05-07T09:46:39;95671.78;;;22.35;43.18
10978;BME280;5542;48.272;10.794;2023-05-07T09:49:12;95675.09;;;22.54;41.88
10978;BME280;5542;48.272;10.794;2023-05-07T09:51:47;95681.53;;;22.75;45.21
10978;BME280;5542;48.272;10.794;2023-05-07T09:54:14;95680.50;;;22.63;43.44
10978;BME280;5542;48.272;10.794;2023-05-07T09:56:44;95674.41;;;22.71;43.59
10978;BME280;5542;48.272;10.794;2023-05-07T09:59:13;95673.84;;;22.83;42.97
10978;BME280;5542;48.272;10.794;2023-05-07T10:01:40;95676.25;;;22.62;41.83
10978;BME280;5542;48.272;10.794;2023-05-07T10:04:08;95676.44;;;22.43;41.52
10978;BME280;5542;48.272;10.794;2023-05-07T10:06:35;95673.22;;;22.32;43.38
10978;BME280;5542;48.272;10.794;2023-05-07T10:09:04;95675.16;;;22.18;41.93
10978;BME280;5542;48.272;10.794;2023-05-07T10:11:32;95679.88;;;22.07;41.69
10978;BME280;5542;48.272;10.794;2023-05-07T10:14:01;95681.22;;;21.96;43.07
10978;BME280;5542;48.272;10.794;2023-05-07T10:16:27;95680.66;;;22.21;43.18
10978;BME280;5542;48.272;10.794;2023-05-07T10:18:55;95674.06;;;22.41;41.60
10978;BME280;5542;48.272;10.794;2023-05-07T10:21:23;95675.34;;;22.66;40.12
10978;BME280;5542;48.272;10.794;2023-05-07T10:23:53;95677.41;;;22.69;39.99
10978;BME280;5542;48.272;10.794;2023-05-07T10:26:22;95675.66;;;22.73;39.65
10978;BME280;5542;48.272;10.794;2023-05-07T10:28:53;95672.53;;;22.71;39.21
10978;BME280;5542;48.272;10.794;2023-05-07T10:31:40;95663.16;;;22.38;39.63
10978;BME280;5542;48.272;10.794;2023-05-07T10:34:11;95671.88;;;22.43;38.83
10978;BME280;5542;48.272;10.794;2023-05-07T10:36:40;95671.34;;;22.64;37.54
10978;BME280;5542;48.272;10.794;2023-05-07T10:39:07;95666.44;;;22.80;38.40
10978;BME280;5542;48.272;10.794;2023-05-07T10:41:34;95671.59;;;22.98;39.71
10978;BME280;5542;48.272;10.794;2023-05-07T10:44:02;95671.38;;;23.17;38.36
10978;BME280;5542;48.272;10.794;2023-05-07T10:46:30;95675.22;;;22.94;37.24
10978;BME280;5542;48.272;10.794;2023-05-07T10:49:07;95671.81;;;22.57;37.05
10978;BME280;5542;48.272;10.794;2023-05-07T10:51:34;95673.19;;;22.55;37.22
10978;BME280;5542;48.272;10.794;2023-05-07T10:54:23;95674.34;;;22.40;37.50
10978;BME280;5542;48.272;10.794;2023-05-07T10:56:52;95666.69;;;22.24;37.05
10978;BME280;5542;48.272;10.794;2023-05-07T10:59:33;95667.53;;;22.34;38.59
10978;BME280;5542;48.272;10.794;2023-05-07T11:02:07;95663.47;;;22.36;38.70
10978;BME280;5542;48.272;10.794;2023-05-07T11:04:36;95661.81;;;22.49;38.17
10978;BME280;5542;48.272;10.794;2023-05-07T11:07:26;95655.00;;;22.65;38.44
10978;BME280;5542;48.272;10.794;2023-05-07T11:10:00;95667.09;;;22.63;38.60
10978;BME280;5542;48.272;10.794;2023-05-07T11:12:48;95661.75;;;22.40;40.57
10978;BME280;5542;48.272;10.794;2023-05-07T11:15:33;95660.41;;;22.29;40.64
10978;BME280;5542;48.272;10.794;2023-05-07T11:18:02;95657.63;;;22.34;40.34
10978;BME280;5542;48.272;10.794;2023-05-07T11:20:53;95651.66;;;22.37;40.10
10978;BME280;5542;48.272;10.794;2023-05-07T11:23:57;95649.38;;;22.53;39.49
10978;BME280;5542;48.272;10.794;2023-05-07T11:26:26;95662.56;;;22.41;39.07
10978;BME280;5542;48.272;10.794;2023-05-07T11:28:53;95659.50;;;22.34;38.40
10978;BME280;5542;48.272;10.794;2023-05-07T11:31:23;95650.69;;;22.33;39.31
10978;BME280;5542;48.272;10.794;2023-05-07T11:33:53;95647.69;;;22.35;41.06
10978;BME280;5542;48.272;10.794;2023-05-07T11:36:21;95647.16;;;22.78;39.13
10978;BME280;5542;48.272;10.794;2023-05-07T11:38:48;95643.50;;;22.96;37.54
10978;BME280;5542;48.272;10.794;2023-05-07T11:41:16;95635.13;;;22.89;36.92
10978;BME280;5542;48.272;10.794;2023-05-07T11:43:56;95640.47;;;22.89;37.38
10978;BME280;5542;48.272;10.794;2023-05-07T11:46:23;95641.41;;;22.93;37.94
10978;BME280;5542;48.272;10.794;2023-05-07T11:48:51;95633.13;;;23.03;37.74
10978;BME280;5542;48.272;10.794;2023-05-07T11:51:19;95637.00;;;23.28;38.40
10978;BME280;5542;48.272;10.794;2023-05-07T11:53:46;95632.44;;;22.89;37.90
10978;BME280;5542;48.272;10.794;2023-05-07T11:56:14;95627.88;;;22.89;37.66
10978;BME280;5542;48.272;10.794;2023-05-07T11:58:41;95629.38;;;22.82;38.14
10978;BME280;5542;48.272;10.794;2023-05-07T12:01:10;95623.38;;;22.85;39.44
10978;BME280;5542;48.272;10.794;2023-05-07T12:03:37;95625.84;;;22.72;40.23
10978;BME280;5542;48.272;10.794;2023-05-07T12:06:07;95627.44;;;23.05;38.64
10978;BME280;5542;48.272;10.794;2023-05-07T12:08:36;95617.81;;;23.04;38.08
10978;BME280;5542;48.272;10.794;2023-05-07T12:11:03;95621.28;;;23.04;37.82
10978;BME280;5542;48.272;10.794;2023-05-07T12:13:29;95625.81;;;22.95;36.87
10978;BME280;5542;48.272;10.794;2023-05-07T12:15:56;95620.47;;;22.72;37.50
10978;BME280;5542;48.272;10.794;2023-05-07T12:18:23;95622.03;;;22.65;38.21
10978;BME280;5542;48.272;10.794;2023-05-07T12:20:51;95617.75;;;22.64;37.72
10978;BME280;5542;48.272;10.794;2023-05-07T12:23:19;95621.53;;;22.63;38.44
10978;BME280;5542;48.272;10.794;2023-05-07T12:25:46;95621.84;;;22.61;38.64
10978;BME280;5542;48.272;10.794;2023-05-07T12:28:13;95623.25;;;22.59;40.56
10978;BME280;5542;48.272;10.794;2023-05-07T12:30:42;95614.78;;;22.65;37.71
10978;BME280;5542;48.272;10.794;2023-05-07T12:33:09;95621.78;;;22.53;39.10
10978;BME280;5542;48.272;10.794;2023-05-07T12:35:37;95610.81;;;22.63;38.26
10978;BME280;5542;48.272;10.794;2023-05-07T12:38:07;95619.72;;;22.49;37.95
10978;BME280;5542;48.272;10.794;2023-05-07T12:40:39;95618.47;;;22.47;38.58
10978;BME280;5542;48.272;10.794;2023-05-07T12:43:07;95621.41;;;22.37;39.05
10978;BME280;5542;48.272;10.794;2023-05-07T12:45:37;95619.78;;;22.36;39.68
10978;BME280;5542;48.272;10.794;2023-05-07T12:48:04;95619.47;;;22.60;38.76
10978;BME280;5542;48.272;10.794;2023-05-07T12:50:31;95626.25;;;22.35;38.68
10978;BME280;5542;48.272;10.794;2023-05-07T12:52:59;95631.59;;;22.35;39.42
10978;BME280;5542;48.272;10.794;2023-05-07T12:55:25;95623.38;;;22.54;39.23
10978;BME280;5542;48.272;10.794;2023-05-07T12:57:53;95622.78;;;22.57;38.88
10978;BME280;5542;48.272;10.794;2023-05-07T13:00:36;95619.88;;;22.75;37.84
10978;BME280;5542;48.272;10.794;2023-05-07T13:03:02;95621.97;;;22.56;37.86